Terminal Aerodrome Forecast
Issued by NWS Cleveland, OH

Home | Current Version | Previous Version | Graphics & Text | Print | Product List | Glossary On
Versions: 1 2 3 4 5 6 7 8 9 10 11 12 13 14 15 16 17 18 19 20 21 22 23 24 25 26 27 28
000
FTUS41 KCLE 272100 AAA
TAFYNG
TAF AMD
KYNG 272131Z 2722/2818 28012KT P6SM OVC028
     FM280000 30008KT 5SM -SHSN OVC025
      TEMPO 2800/2804 2SM -SHSN OVC015
     FM280800 30008KT P6SM OVC025
     FM281400 26006KT P6SM SCT025 BKN200=

USA.gov is the U.S. government's official web portal to all federal, state and local government web resources and services.